createdAt,value
2019-05-19T00:00:32.983Z,5.00
2019-05-19T00:01:33.039Z,4.30
2019-05-19T00:02:33.095Z,4.10
2019-05-19T00:03:33.153Z,4.10
2019-05-19T00:04:33.210Z,4.10
2019-05-19T00:05:33.267Z,4.10
2019-05-19T00:06:33.326Z,4.20
2019-05-19T00:07:33.385Z,3.90
2019-05-19T00:08:33.440Z,3.80
2019-05-19T00:09:33.498Z,4.00
2019-05-19T00:10:33.557Z,3.80
2019-05-19T00:11:33.613Z,4.10
2019-05-19T00:12:33.669Z,4.10
2019-05-19T00:13:33.733Z,3.60
2019-05-19T00:14:33.793Z,4.10
2019-05-19T00:15:33.843Z,3.90
2019-05-19T00:16:33.900Z,3.80
2019-05-19T00:17:33.962Z,4.20
2019-05-19T00:18:34.016Z,3.80
2019-05-19T00:19:34.077Z,4.00
2019-05-19T00:20:34.129Z,3.80
2019-05-19T00:21:34.192Z,3.80
2019-05-19T00:22:34.255Z,3.80
2019-05-19T00:23:34.304Z,3.40
2019-05-19T00:24:34.365Z,4.20
2019-05-19T00:25:34.446Z,4.40
2019-05-19T00:26:34.478Z,4.20
2019-05-19T00:27:34.537Z,4.40
2019-05-19T00:28:34.608Z,4.30
2019-05-19T00:29:34.658Z,4.60
2019-05-19T00:30:34.708Z,4.80
2019-05-19T00:31:34.765Z,5.10
2019-05-19T00:32:34.818Z,4.90
2019-05-19T00:33:34.877Z,5.10
2019-05-19T00:34:34.934Z,4.80
2019-05-19T00:35:35.047Z,4.60
2019-05-19T00:36:35.047Z,4.60
2019-05-19T00:37:35.105Z,4.70
2019-05-19T00:38:35.164Z,5.20
2019-05-19T00:39:35.234Z,5.10
2019-05-19T00:40:35.278Z,4.80
2019-05-19T00:41:35.336Z,4.70
2019-05-19T00:42:35.393Z,4.20
2019-05-19T00:43:35.464Z,4.80
2019-05-19T00:44:35.510Z,4.30
2019-05-19T00:45:35.565Z,4.40
2019-05-19T00:46:35.623Z,4.50
2019-05-19T00:47:35.681Z,5.00
2019-05-19T00:48:35.735Z,4.80
2019-05-19T00:49:41.273Z,5.00
2019-05-19T00:50:35.852Z,4.90
2019-05-19T00:51:35.908Z,4.60
2019-05-19T00:52:35.967Z,5.10
2019-05-19T00:53:36.022Z,5.20
2019-05-19T00:54:36.079Z,4.70
2019-05-19T00:55:36.138Z,5.20
2019-05-19T00:56:36.211Z,5.40
2019-05-19T00:57:36.252Z,4.70
2019-05-19T00:58:36.310Z,5.00
2019-05-19T00:59:36.371Z,5.00
2019-05-19T01:00:36.424Z,5.30
2019-05-19T01:01:36.481Z,4.80
2019-05-19T01:02:36.538Z,4.80
2019-05-19T01:03:36.604Z,5.30
2019-05-19T01:04:36.654Z,5.40
2019-05-19T01:05:36.712Z,5.20
2019-05-19T01:06:36.767Z,5.00
2019-05-19T01:07:36.825Z,5.60
2019-05-19T01:08:37.489Z,5.00
2019-05-19T01:09:36.940Z,5.00
2019-05-19T01:10:36.997Z,5.70
2019-05-19T01:11:37.056Z,5.00
2019-05-19T01:12:37.112Z,5.20
2019-05-19T01:13:37.170Z,5.20
2019-05-19T01:14:37.228Z,5.70
2019-05-19T01:15:37.288Z,5.20
2019-05-19T01:16:37.342Z,5.60
2019-05-19T01:17:37.400Z,5.00
2019-05-19T01:18:37.456Z,5.00
2019-05-19T01:19:37.514Z,4.90
2019-05-19T01:20:37.571Z,4.90
2019-05-19T01:21:37.630Z,5.00
2019-05-19T01:22:37.686Z,5.40
2019-05-19T01:23:37.745Z,5.10
2019-05-19T01:24:37.802Z,5.10
2019-05-19T01:25:37.865Z,4.80
2019-05-19T01:26:37.918Z,4.40
2019-05-19T01:27:37.976Z,5.00
2019-05-19T01:28:38.033Z,4.50
2019-05-19T01:29:38.090Z,3.90
2019-05-19T01:30:38.147Z,4.10
2019-05-19T01:31:38.205Z,4.10
2019-05-19T01:32:38.261Z,4.00
2019-05-19T01:33:38.319Z,4.60
2019-05-19T01:34:38.376Z,5.30
2019-05-19T01:35:38.435Z,4.50
2019-05-19T01:36:38.491Z,4.70
2019-05-19T01:37:38.549Z,5.00
2019-05-19T01:38:38.607Z,4.60
2019-05-19T01:39:38.666Z,4.10
2019-05-19T01:40:38.723Z,4.40
2019-05-19T01:41:38.778Z,4.40
2019-05-19T01:42:38.842Z,4.10
2019-05-19T01:43:38.895Z,3.90
2019-05-19T01:44:38.958Z,3.90
2019-05-19T01:45:39.012Z,4.40
2019-05-19T01:46:39.068Z,4.00
2019-05-19T01:47:39.123Z,4.30
2019-05-19T01:48:39.180Z,4.20
2019-05-19T01:49:39.240Z,4.30
2019-05-19T01:50:39.296Z,3.80
2019-05-19T01:51:39.354Z,4.00
2019-05-19T01:52:39.409Z,4.70
2019-05-19T01:53:39.467Z,4.20
2019-05-19T01:54:39.525Z,5.00
2019-05-19T01:55:39.584Z,4.90
2019-05-19T01:56:39.643Z,4.30
2019-05-19T01:57:39.696Z,4.50
2019-05-19T01:58:39.755Z,4.90
2019-05-19T01:59:39.812Z,4.90
2019-05-19T02:00:39.870Z,4.80
2019-05-19T02:01:39.950Z,4.50
2019-05-19T02:02:39.984Z,4.70
2019-05-19T02:03:40.040Z,4.60
2019-05-19T02:04:40.097Z,4.60
2019-05-19T02:05:40.153Z,4.60
2019-05-19T02:06:40.211Z,4.60
2019-05-19T02:07:40.273Z,4.90
2019-05-19T02:08:40.325Z,4.80
2019-05-19T02:09:40.383Z,4.60
2019-05-19T02:10:40.441Z,4.00
2019-05-19T02:11:40.523Z,5.20
2019-05-19T02:12:40.554Z,4.60
2019-05-19T02:13:40.611Z,4.80
2019-05-19T02:14:40.668Z,4.40
2019-05-19T02:15:40.727Z,4.40
2019-05-19T02:16:40.782Z,4.60
2019-05-19T02:17:40.839Z,4.80
2019-05-19T02:18:40.898Z,4.80
2019-05-19T02:19:40.955Z,5.00
2019-05-19T02:20:41.012Z,4.80
2019-05-19T02:21:41.075Z,4.50
2019-05-19T02:22:41.127Z,4.30
2019-05-19T02:23:41.185Z,4.20
2019-05-19T02:24:41.550Z,4.30
2019-05-19T02:25:41.297Z,4.00
2019-05-19T02:26:41.356Z,4.50
2019-05-19T02:27:41.413Z,4.10
2019-05-19T02:28:41.469Z,4.30
2019-05-19T02:29:41.525Z,4.60
2019-05-19T02:30:41.584Z,4.50
2019-05-19T02:31:41.642Z,4.20
2019-05-19T02:32:41.699Z,4.20
2019-05-19T02:33:41.753Z,4.30
2019-05-19T02:34:41.811Z,4.40
2019-05-19T02:35:41.874Z,4.80
2019-05-19T02:36:42.010Z,4.30
2019-05-19T02:37:41.982Z,4.40
2019-05-19T02:38:42.040Z,4.40
2019-05-19T02:39:42.099Z,4.10
2019-05-19T02:40:42.155Z,4.30
2019-05-19T02:41:42.212Z,4.10
2019-05-19T02:42:42.274Z,4.10
2019-05-19T02:43:42.640Z,4.70
2019-05-19T02:44:42.380Z,4.50
2019-05-19T02:45:42.439Z,4.40
2019-05-19T02:46:42.496Z,4.30
2019-05-19T02:47:42.576Z,4.30
2019-05-19T02:48:42.617Z,4.10
2019-05-19T02:49:42.668Z,4.30
2019-05-19T02:50:52.092Z,4.20
2019-05-19T02:51:42.783Z,4.50
2019-05-19T02:52:42.839Z,4.50
2019-05-19T02:53:42.896Z,4.70
2019-05-19T02:54:42.954Z,4.20
2019-05-19T02:55:43.017Z,4.10
2019-05-19T02:56:43.067Z,4.10
2019-05-19T02:57:43.144Z,4.20
2019-05-19T02:58:43.184Z,4.20
2019-05-19T02:59:43.239Z,4.50
2019-05-19T03:00:43.295Z,4.40
2019-05-19T03:01:43.359Z,4.40
2019-05-19T03:02:43.417Z,4.20
2019-05-19T03:03:43.468Z,4.20
2019-05-19T03:04:43.524Z,4.50
2019-05-19T03:05:43.582Z,4.50
2019-05-19T03:06:43.638Z,4.30
2019-05-19T03:07:43.701Z,4.30
2019-05-19T03:08:43.754Z,5.10
2019-05-19T03:09:43.811Z,4.80
2019-05-19T03:10:43.867Z,5.00
2019-05-19T03:11:43.927Z,4.40
2019-05-19T03:12:43.980Z,4.40
2019-05-19T03:13:44.040Z,4.20
2019-05-19T03:14:44.098Z,4.40
2019-05-19T03:15:44.155Z,4.40
2019-05-19T03:16:44.211Z,4.30
2019-05-19T03:17:44.267Z,4.00
2019-05-19T03:18:44.332Z,4.30
2019-05-19T03:19:44.390Z,4.20
2019-05-19T03:20:44.440Z,3.80
2019-05-19T03:21:44.496Z,4.70
2019-05-19T03:22:44.577Z,4.60
2019-05-19T03:23:44.614Z,4.80
2019-05-19T03:24:44.668Z,4.20
2019-05-19T03:25:44.732Z,4.30
2019-05-19T03:26:44.792Z,3.90
2019-05-19T03:27:44.841Z,3.80
2019-05-19T03:28:44.899Z,4.40
2019-05-19T03:29:44.955Z,4.70
2019-05-19T03:30:45.016Z,4.90
2019-05-19T03:31:45.081Z,5.40
2019-05-19T03:32:45.127Z,4.00
2019-05-19T03:33:45.185Z,4.30
2019-05-19T03:34:45.242Z,4.20
2019-05-19T03:35:45.300Z,4.40
2019-05-19T03:36:45.355Z,4.90
2019-05-19T03:37:45.417Z,4.70
2019-05-19T03:38:45.470Z,4.90
2019-05-19T03:39:45.528Z,4.50
2019-05-19T03:40:45.585Z,4.80
2019-05-19T03:41:45.641Z,5.00
2019-05-19T03:42:45.700Z,4.20
2019-05-19T03:43:45.770Z,4.30
2019-05-19T03:44:45.818Z,4.50
2019-05-19T03:45:45.872Z,4.90
2019-05-19T03:46:45.933Z,4.20
2019-05-19T03:47:45.985Z,4.80
2019-05-19T03:48:46.058Z,4.60
2019-05-19T03:49:46.105Z,4.40
2019-05-19T03:50:46.166Z,4.20
2019-05-19T03:51:46.214Z,4.70
2019-05-19T03:52:46.274Z,4.70
2019-05-19T03:53:46.329Z,4.20
2019-05-19T03:54:46.390Z,4.50
2019-05-19T03:55:46.610Z,4.70
2019-05-19T03:56:46.499Z,4.30
2019-05-19T03:57:46.569Z,4.50
2019-05-19T03:58:46.616Z,4.40
2019-05-19T03:59:46.703Z,4.70
2019-05-19T04:00:46.753Z,4.80
2019-05-19T04:01:46.788Z,4.70
2019-05-19T04:02:46.843Z,5.10
2019-05-19T04:03:46.901Z,4.40
2019-05-19T04:04:46.959Z,5.50
2019-05-19T04:05:47.014Z,4.90
2019-05-19T04:06:47.073Z,4.40
2019-05-19T04:07:47.129Z,4.40
2019-05-19T04:08:47.185Z,5.00
2019-05-19T04:09:47.243Z,5.10
2019-05-19T04:10:47.303Z,5.30
2019-05-19T04:11:47.361Z,4.50
2019-05-19T04:12:47.413Z,4.70
2019-05-19T04:13:47.471Z,4.40
2019-05-19T04:14:47.528Z,4.80
2019-05-19T04:15:47.587Z,5.30
2019-05-19T04:16:47.645Z,5.00
2019-05-19T04:17:47.702Z,5.50
2019-05-19T04:18:47.759Z,5.20
2019-05-19T04:19:47.815Z,5.30
2019-05-19T04:20:47.871Z,5.50
2019-05-19T04:21:49.580Z,5.50
2019-05-19T04:22:47.985Z,5.80
2019-05-19T04:23:48.045Z,5.40
2019-05-19T04:24:48.106Z,6.30
2019-05-19T04:25:48.157Z,5.60
2019-05-19T04:26:48.215Z,5.40
2019-05-19T04:27:48.275Z,5.50
2019-05-19T04:28:48.329Z,6.10
2019-05-19T04:29:48.385Z,5.80
2019-05-19T04:30:48.443Z,5.40
2019-05-19T04:31:48.506Z,5.30
2019-05-19T04:32:48.557Z,5.50
2019-05-19T04:33:48.615Z,5.40
2019-05-19T04:34:48.672Z,6.00
2019-05-19T04:35:48.730Z,6.00
2019-05-19T04:36:48.789Z,5.70
2019-05-19T04:37:48.851Z,5.80
2019-05-19T04:38:48.900Z,5.50
2019-05-19T04:39:48.963Z,5.80
2019-05-19T04:40:49.017Z,6.00
2019-05-19T04:41:49.075Z,6.50
2019-05-19T04:42:49.132Z,6.10
2019-05-19T04:43:49.187Z,5.90
2019-05-19T04:44:49.248Z,5.80
2019-05-19T04:45:49.321Z,5.50
2019-05-19T04:46:49.362Z,5.90
2019-05-19T04:47:49.431Z,5.90
2019-05-19T04:48:49.475Z,6.20
2019-05-19T04:49:49.533Z,5.90
2019-05-19T04:50:49.587Z,5.90
2019-05-19T04:52:05.542Z,5.60
2019-05-19T04:52:49.705Z,5.60
2019-05-19T04:53:49.769Z,5.40
2019-05-19T04:54:49.819Z,5.50
2019-05-19T04:55:49.877Z,5.60
2019-05-19T04:56:49.932Z,5.40
2019-05-19T04:57:49.990Z,5.90
2019-05-19T04:58:50.046Z,5.60
2019-05-19T04:59:50.108Z,6.10
2019-05-19T05:00:50.161Z,5.70
2019-05-19T05:01:50.220Z,5.10
2019-05-19T05:02:50.278Z,5.10
2019-05-19T05:03:50.338Z,5.20
2019-05-19T05:04:50.391Z,5.70
2019-05-19T05:05:50.450Z,5.30
2019-05-19T05:06:50.509Z,5.50
2019-05-19T05:07:50.566Z,6.00
2019-05-19T05:08:50.631Z,6.20
2019-05-19T05:09:50.679Z,5.80
2019-05-19T05:10:50.737Z,5.10
2019-05-19T05:11:50.795Z,5.60
2019-05-19T05:12:50.861Z,5.40
2019-05-19T05:13:50.910Z,5.50
2019-05-19T05:14:50.968Z,5.60
2019-05-19T05:15:51.025Z,5.10
2019-05-19T05:16:51.097Z,5.50
2019-05-19T05:17:51.145Z,5.10
2019-05-19T05:18:51.199Z,5.50
2019-05-19T05:19:51.257Z,5.00
2019-05-19T05:20:51.319Z,4.90
2019-05-19T05:21:51.372Z,5.20
2019-05-19T05:22:51.445Z,5.00
2019-05-19T05:23:51.488Z,5.20
2019-05-19T05:24:51.544Z,4.80
2019-05-19T05:25:51.602Z,4.90
2019-05-19T05:26:51.661Z,4.80
2019-05-19T05:27:51.722Z,5.10
2019-05-19T05:28:51.775Z,4.80
2019-05-19T05:29:51.834Z,4.80
2019-05-19T05:30:51.893Z,5.30
2019-05-19T05:31:51.949Z,4.60
2019-05-19T05:32:52.011Z,4.50
2019-05-19T05:33:52.065Z,4.60
2019-05-19T05:34:52.122Z,4.20
2019-05-19T05:35:52.181Z,4.90
2019-05-19T05:36:52.237Z,4.20
2019-05-19T05:37:52.296Z,4.20
2019-05-19T05:38:52.354Z,4.90
2019-05-19T05:39:52.412Z,4.60
2019-05-19T05:40:52.469Z,4.50
2019-05-19T05:41:52.529Z,4.40
2019-05-19T05:42:52.598Z,4.60
2019-05-19T05:43:52.643Z,4.10
2019-05-19T05:44:52.701Z,4.60
2019-05-19T05:45:52.761Z,4.40
2019-05-19T05:46:52.818Z,4.10
2019-05-19T05:47:52.876Z,4.60
2019-05-19T05:48:52.933Z,4.20
2019-05-19T05:49:52.994Z,4.40
2019-05-19T05:50:53.051Z,4.30
2019-05-19T05:51:53.108Z,4.20
2019-05-19T05:52:53.165Z,4.10
2019-05-19T05:53:53.222Z,4.20
2019-05-19T05:54:53.283Z,4.60
2019-05-19T05:55:53.658Z,4.70
2019-05-19T05:56:53.403Z,4.70
2019-05-19T05:57:53.457Z,5.10
2019-05-19T05:58:53.513Z,4.90
2019-05-19T05:59:53.572Z,5.40
2019-05-19T06:00:53.631Z,5.40
2019-05-19T06:01:53.688Z,6.00
2019-05-19T06:02:53.786Z,5.80
2019-05-19T06:03:53.805Z,4.90
2019-05-19T06:04:53.865Z,4.90
2019-05-19T06:05:53.920Z,4.80
2019-05-19T06:06:53.980Z,6.10
2019-05-19T06:07:54.039Z,5.80
2019-05-19T06:08:54.099Z,5.00
2019-05-19T06:09:54.157Z,5.20
2019-05-19T06:10:54.225Z,5.40
2019-05-19T06:11:54.273Z,5.50
2019-05-19T06:12:54.328Z,5.30
2019-05-19T06:13:54.387Z,5.00
2019-05-19T06:14:54.445Z,5.60
2019-05-19T06:15:54.518Z,5.90
2019-05-19T06:16:54.560Z,5.50
2019-05-19T06:17:54.625Z,5.60
2019-05-19T06:18:56.779Z,5.10
2019-05-19T06:19:54.738Z,5.60
2019-05-19T06:20:55.155Z,5.40
2019-05-19T06:21:54.854Z,5.60
2019-05-19T06:22:57.021Z,6.00
2019-05-19T06:23:54.972Z,5.30
2019-05-19T06:24:55.030Z,5.70
2019-05-19T06:25:55.091Z,5.90
2019-05-19T06:26:55.149Z,5.50
2019-05-19T06:27:55.208Z,5.90
2019-05-19T06:28:55.266Z,5.90
2019-05-19T06:29:55.326Z,5.60
2019-05-19T06:30:55.385Z,5.90
2019-05-19T06:31:55.448Z,5.60
2019-05-19T06:32:55.502Z,6.00
2019-05-19T06:33:55.991Z,6.00
2019-05-19T06:34:55.620Z,5.80
2019-05-19T06:35:55.686Z,6.50
2019-05-19T06:36:55.742Z,6.10
2019-05-19T06:37:55.799Z,5.90
2019-05-19T06:38:55.924Z,5.90
2019-05-19T06:39:55.916Z,6.00
2019-05-19T06:40:56.056Z,6.00
2019-05-19T06:41:56.037Z,6.10
2019-05-19T06:42:56.094Z,5.80
2019-05-19T06:43:56.153Z,5.70
2019-05-19T06:44:56.212Z,6.10
2019-05-19T06:45:56.273Z,5.70
2019-05-19T06:46:56.331Z,6.20
2019-05-19T06:47:56.401Z,6.00
2019-05-19T06:48:56.451Z,6.50
2019-05-19T06:49:56.510Z,5.80
2019-05-19T06:50:56.586Z,5.60
2019-05-19T06:51:56.628Z,5.70
2019-05-19T06:53:12.661Z,6.10
2019-05-19T06:53:56.748Z,5.70
2019-05-19T06:55:49.338Z,6.30
2019-05-19T06:56:49.398Z,5.80
2019-05-19T06:57:49.455Z,5.70
2019-05-19T06:58:49.518Z,5.70
2019-05-19T06:59:49.597Z,5.80
2019-05-19T07:00:49.679Z,5.70
2019-05-19T07:01:49.695Z,5.50
2019-05-19T07:02:49.759Z,5.60
2019-05-19T07:03:49.814Z,6.30
2019-05-19T07:04:49.872Z,6.10
2019-05-19T07:05:49.935Z,6.50
2019-05-19T07:06:50.058Z,5.70
2019-05-19T07:07:50.053Z,6.00
2019-05-19T07:08:50.111Z,5.70
2019-05-19T07:09:58.303Z,6.10
2019-05-19T07:10:50.231Z,6.10
2019-05-19T07:11:50.300Z,5.80
2019-05-19T07:12:50.351Z,5.80
2019-05-19T07:13:50.420Z,5.80
2019-05-19T07:14:50.470Z,5.70
2019-05-19T07:15:50.535Z,5.80
2019-05-19T07:16:50.614Z,5.40
2019-05-19T07:17:50.651Z,6.00
2019-05-19T07:18:50.711Z,6.00
2019-05-19T07:19:50.771Z,6.10
2019-05-19T07:20:50.831Z,6.00
2019-05-19T07:21:50.893Z,6.20
2019-05-19T07:22:50.953Z,6.00
2019-05-19T07:23:51.017Z,6.10
2019-05-19T07:24:51.072Z,6.60
2019-05-19T07:25:51.134Z,6.10
2019-05-19T07:26:51.195Z,6.40
2019-05-19T07:27:51.255Z,5.80
2019-05-19T07:28:51.317Z,5.80
2019-05-19T07:29:51.375Z,5.60
2019-05-19T07:30:51.435Z,5.90
2019-05-19T07:31:51.498Z,5.90
2019-05-19T07:32:51.554Z,5.60
2019-05-19T07:33:51.616Z,6.20
2019-05-19T07:34:51.678Z,6.60
2019-05-19T07:35:51.742Z,6.20
2019-05-19T07:36:51.799Z,6.20
2019-05-19T07:37:51.857Z,6.00
2019-05-19T07:38:51.918Z,6.40
2019-05-19T07:39:51.980Z,5.70
2019-05-19T07:40:52.037Z,6.10
2019-05-19T07:41:52.100Z,6.00
2019-05-19T07:42:52.160Z,5.40
2019-05-19T07:43:52.220Z,5.90
2019-05-19T07:44:52.285Z,6.10
2019-05-19T07:45:52.701Z,6.40
2019-05-19T07:46:52.402Z,6.10
2019-05-19T07:47:52.463Z,5.70
2019-05-19T07:48:52.526Z,6.10
2019-05-19T07:49:52.583Z,6.10
2019-05-19T07:50:52.644Z,5.80
2019-05-19T07:51:52.705Z,5.60
2019-05-19T07:52:52.764Z,6.20
2019-05-19T07:53:52.975Z,6.40
2019-05-19T07:54:52.887Z,6.30
2019-05-19T07:55:52.954Z,6.30
2019-05-19T07:56:53.008Z,6.50
2019-05-19T07:57:53.070Z,5.70
2019-05-19T07:58:53.131Z,6.30
2019-05-19T07:59:53.193Z,6.30
2019-05-19T08:00:53.261Z,6.30
2019-05-19T08:01:53.312Z,6.60
2019-05-19T08:02:53.373Z,6.10
2019-05-19T08:03:53.437Z,6.20
2019-05-19T08:04:53.495Z,7.00
2019-05-19T08:05:56.776Z,6.70
2019-05-19T08:06:53.623Z,6.70
2019-05-19T08:07:53.679Z,6.50
2019-05-19T08:08:53.744Z,6.80
2019-05-19T08:09:53.803Z,6.60
2019-05-19T08:10:53.862Z,6.60
2019-05-19T08:11:53.927Z,6.40
2019-05-19T08:12:53.984Z,6.30
2019-05-19T08:13:54.048Z,6.10
2019-05-19T08:14:54.107Z,6.40
2019-05-19T08:15:54.169Z,6.40
2019-05-19T08:16:54.230Z,6.70
2019-05-19T08:17:54.292Z,6.90
2019-05-19T08:18:54.353Z,6.80
2019-05-19T08:19:54.414Z,6.80
2019-05-19T08:20:54.476Z,6.80
2019-05-19T08:21:54.536Z,6.90
2019-05-19T08:22:54.606Z,7.00
2019-05-19T08:24:00.243Z,6.70
2019-05-19T08:24:54.720Z,6.90
2019-05-19T08:25:54.781Z,6.90
2019-05-19T08:26:54.845Z,6.60
2019-05-19T08:27:54.905Z,6.30
2019-05-19T08:28:54.966Z,6.20
2019-05-19T08:29:55.049Z,7.10
2019-05-19T08:30:55.087Z,6.90
2019-05-19T08:31:55.165Z,6.70
2019-05-19T08:32:55.211Z,6.80
2019-05-19T08:33:55.286Z,7.20
2019-05-19T08:34:55.331Z,7.40
2019-05-19T08:35:55.398Z,6.50
2019-05-19T08:36:55.479Z,6.80
2019-05-19T08:37:55.514Z,7.10
2019-05-19T08:38:55.576Z,7.30
2019-05-19T08:39:55.642Z,7.20
2019-05-19T08:40:55.726Z,7.00
2019-05-19T08:41:55.757Z,7.00
2019-05-19T08:42:55.823Z,7.80
2019-05-19T08:43:55.887Z,7.30
2019-05-19T08:44:55.941Z,7.20
2019-05-19T08:45:56.003Z,7.40
2019-05-19T08:46:56.062Z,7.80
2019-05-19T08:47:56.127Z,7.90
2019-05-19T08:48:58.460Z,7.40
2019-05-19T08:49:56.243Z,7.50
2019-05-19T08:50:56.303Z,7.60
2019-05-19T08:51:56.364Z,7.00
2019-05-19T08:52:56.425Z,7.90
2019-05-19T08:53:56.550Z,7.40
2019-05-19T08:54:56.546Z,7.80
2019-05-19T08:55:56.608Z,7.20
2019-05-19T08:56:56.690Z,7.70
2019-05-19T08:57:56.727Z,7.30
2019-05-19T08:58:56.790Z,7.70
2019-05-19T08:59:56.853Z,8.10
2019-05-19T09:00:56.915Z,8.00
2019-05-19T09:01:56.972Z,7.80
2019-05-19T09:02:57.033Z,7.30
2019-05-19T09:03:57.160Z,7.20
2019-05-19T09:04:57.155Z,7.40
2019-05-19T09:05:57.216Z,8.10
2019-05-19T09:06:57.277Z,7.80
2019-05-19T09:07:57.374Z,7.60
2019-05-19T09:08:57.401Z,7.60
2019-05-19T09:09:57.460Z,7.90
2019-05-19T09:10:57.522Z,7.90
2019-05-19T09:11:57.664Z,7.90
2019-05-19T09:12:57.644Z,7.10
2019-05-19T09:13:57.707Z,7.10
2019-05-19T09:14:57.769Z,7.70
2019-05-19T09:15:57.830Z,7.60
2019-05-19T09:16:58.208Z,7.60
2019-05-19T09:17:57.951Z,7.80
2019-05-19T09:18:58.030Z,7.60
2019-05-19T09:19:58.078Z,7.00
2019-05-19T09:20:58.137Z,8.00
2019-05-19T09:21:58.249Z,7.50
2019-05-19T09:22:58.258Z,7.30
2019-05-19T09:23:58.322Z,7.10
2019-05-19T09:24:58.383Z,7.00
2019-05-19T09:25:58.444Z,7.80
2019-05-19T09:26:58.503Z,7.70
2019-05-19T09:27:58.827Z,7.60
2019-05-19T09:28:58.626Z,7.80
2019-05-19T09:29:58.689Z,7.40
2019-05-19T09:30:58.770Z,7.40
2019-05-19T09:31:58.854Z,8.10
2019-05-19T09:32:58.874Z,7.90
2019-05-19T09:33:58.933Z,7.80
2019-05-19T09:34:58.994Z,7.70
2019-05-19T09:35:59.055Z,7.90
2019-05-19T09:36:59.493Z,7.10
2019-05-19T09:37:59.178Z,7.80
2019-05-19T09:38:59.238Z,7.70
2019-05-19T09:39:59.299Z,8.00
2019-05-19T09:40:59.359Z,8.30
2019-05-19T09:41:59.459Z,8.60
2019-05-19T09:42:59.483Z,8.50
2019-05-19T09:43:59.553Z,8.20
2019-05-19T09:44:59.611Z,8.50
2019-05-19T09:45:59.666Z,8.20
2019-05-19T09:47:00.117Z,8.80
2019-05-19T09:48:00.098Z,8.90
2019-05-19T09:48:59.845Z,8.80
2019-05-19T09:49:59.908Z,8.20
2019-05-19T09:50:59.973Z,7.80
2019-05-19T09:52:00.136Z,8.20
2019-05-19T09:53:00.089Z,8.90
2019-05-19T09:54:00.148Z,8.20
2019-05-19T09:55:00.211Z,8.90
2019-05-19T09:56:00.270Z,8.60
2019-05-19T09:57:00.331Z,8.60
2019-05-19T09:58:00.393Z,7.80
2019-05-19T09:59:00.450Z,8.40
2019-05-19T10:00:00.530Z,8.70
2019-05-19T10:01:00.571Z,8.90
2019-05-19T10:02:00.631Z,8.30
2019-05-19T10:03:00.692Z,8.60
2019-05-19T10:04:00.752Z,7.30
2019-05-19T10:05:00.818Z,8.20
2019-05-19T10:06:00.872Z,8.30
2019-05-19T10:07:01.642Z,8.80
2019-05-19T10:08:00.993Z,8.80
2019-05-19T10:09:01.054Z,8.70
2019-05-19T10:10:01.116Z,8.40
2019-05-19T10:11:01.184Z,8.30
2019-05-19T10:12:01.238Z,8.60
2019-05-19T10:13:01.298Z,8.40
2019-05-19T10:14:01.452Z,8.40
2019-05-19T10:15:02.475Z,8.90
2019-05-19T10:16:01.479Z,8.00
2019-05-19T10:17:01.670Z,8.30
2019-05-19T10:18:01.601Z,8.30
2019-05-19T10:19:01.667Z,7.90
2019-05-19T10:20:01.723Z,8.30
2019-05-19T10:21:01.787Z,8.00
2019-05-19T10:22:01.845Z,8.40
2019-05-19T10:23:01.908Z,8.20
2019-05-19T10:24:01.969Z,7.60
2019-05-19T10:25:20.303Z,8.20
2019-05-19T10:26:02.097Z,8.00
2019-05-19T10:27:02.158Z,7.80
2019-05-19T10:28:02.218Z,8.00
2019-05-19T10:29:02.281Z,8.50
2019-05-19T10:30:02.344Z,8.00
2019-05-19T10:31:02.406Z,7.80
2019-05-19T10:32:02.472Z,7.80
2019-05-19T10:33:02.531Z,8.00
2019-05-19T10:34:02.603Z,7.90
2019-05-19T10:35:02.663Z,7.60
2019-05-19T10:36:02.724Z,7.30
2019-05-19T10:37:02.795Z,7.90
2019-05-19T10:38:02.853Z,7.60
2019-05-19T10:39:02.919Z,8.10
2019-05-19T10:40:03.371Z,7.70
2019-05-19T10:41:03.047Z,7.30
2019-05-19T10:42:03.118Z,7.60
2019-05-19T10:43:03.178Z,7.30
2019-05-19T10:44:03.247Z,6.90
2019-05-19T10:45:03.310Z,6.80
2019-05-19T10:46:03.373Z,6.90
2019-05-19T10:47:03.439Z,6.50
2019-05-19T10:48:03.505Z,6.40
2019-05-19T10:49:03.568Z,5.90
2019-05-19T10:50:03.638Z,5.70
2019-05-19T10:51:03.699Z,5.30
2019-05-19T10:52:03.769Z,4.90
2019-05-19T10:53:03.837Z,5.20
2019-05-19T10:54:03.895Z,4.80
2019-05-19T10:55:03.962Z,5.00
2019-05-19T10:56:04.026Z,5.40
2019-05-19T10:57:04.091Z,5.80
2019-05-19T10:58:04.158Z,5.40
2019-05-19T10:59:04.222Z,5.50
2019-05-19T11:00:04.288Z,5.50
2019-05-19T11:01:04.352Z,5.30
2019-05-19T11:02:04.422Z,5.40
2019-05-19T11:03:04.481Z,5.70
2019-05-19T11:04:04.547Z,5.80
2019-05-19T11:05:04.612Z,6.50
2019-05-19T11:06:04.725Z,6.20
2019-05-19T11:07:04.741Z,6.00
2019-05-19T11:08:04.806Z,6.20
2019-05-19T11:09:04.871Z,5.80
2019-05-19T11:10:04.934Z,5.80
2019-05-19T11:11:04.999Z,6.00
2019-05-19T11:12:05.070Z,5.90
2019-05-19T11:13:05.131Z,5.50
2019-05-19T11:14:05.194Z,5.80
2019-05-19T11:15:05.258Z,5.70
2019-05-19T11:16:05.323Z,5.70
2019-05-19T11:17:05.389Z,5.50
2019-05-19T11:18:06.553Z,5.40
2019-05-19T11:19:05.524Z,5.90
2019-05-19T11:20:05.583Z,6.40
2019-05-19T11:21:05.647Z,6.60
2019-05-19T11:22:05.715Z,6.50
2019-05-19T11:23:05.779Z,6.00
2019-05-19T11:24:05.843Z,6.00
2019-05-19T11:25:05.906Z,5.80
2019-05-19T11:26:05.972Z,6.10
2019-05-19T11:27:06.035Z,5.40
2019-05-19T11:28:06.100Z,6.00
2019-05-19T11:29:06.165Z,5.90
2019-05-19T11:30:06.232Z,5.80
2019-05-19T11:31:06.293Z,5.50
2019-05-19T11:32:06.358Z,5.90
2019-05-19T11:33:06.422Z,5.10
2019-05-19T11:34:06.487Z,5.40
2019-05-19T11:35:06.552Z,5.80
2019-05-19T11:36:06.615Z,5.70
2019-05-19T11:37:07.418Z,5.20
2019-05-19T11:38:06.742Z,5.20
2019-05-19T11:39:06.808Z,5.50
2019-05-19T11:40:06.871Z,5.10
2019-05-19T11:41:06.935Z,4.80
2019-05-19T11:42:06.997Z,5.00
2019-05-19T11:43:07.062Z,4.70
2019-05-19T11:44:07.128Z,4.50
2019-05-19T11:45:07.188Z,4.80
2019-05-19T11:46:07.254Z,4.10
2019-05-19T11:47:07.319Z,3.80
2019-05-19T11:48:07.381Z,4.00
2019-05-19T11:49:07.444Z,4.10
2019-05-19T11:50:07.509Z,4.00
2019-05-19T11:51:07.573Z,4.10
2019-05-19T11:52:07.636Z,3.70
2019-05-19T11:53:07.698Z,4.30
2019-05-19T11:54:07.770Z,4.00
2019-05-19T11:55:07.825Z,3.60
2019-05-19T11:56:11.257Z,4.00
2019-05-19T11:57:07.950Z,3.90
2019-05-19T11:58:08.015Z,4.20
2019-05-19T11:59:08.088Z,4.00
2019-05-19T12:00:08.140Z,3.90
2019-05-19T12:01:08.205Z,4.00
2019-05-19T12:02:08.267Z,4.10
2019-05-19T12:03:08.328Z,3.90
2019-05-19T12:04:08.391Z,4.00
2019-05-19T12:05:08.453Z,4.10
2019-05-19T12:06:08.516Z,3.70
2019-05-19T12:07:08.581Z,4.10
2019-05-19T12:08:08.642Z,3.70
2019-05-19T12:09:08.703Z,3.90
2019-05-19T12:10:08.767Z,3.60
2019-05-19T12:11:08.829Z,3.80
2019-05-19T12:12:08.892Z,4.00
2019-05-19T12:13:08.953Z,3.70
2019-05-19T12:14:09.017Z,4.10
2019-05-19T12:15:09.080Z,3.60
2019-05-19T12:16:09.142Z,3.30
2019-05-19T12:17:09.245Z,3.50
2019-05-19T12:18:09.266Z,3.50
2019-05-19T12:19:09.922Z,3.40
2019-05-19T12:20:09.395Z,3.60
2019-05-19T12:21:09.540Z,3.50
2019-05-19T12:22:09.540Z,3.50
2019-05-19T12:23:09.580Z,4.10
2019-05-19T12:24:09.643Z,3.90
2019-05-19T12:25:09.706Z,3.40
2019-05-19T12:26:22.744Z,3.70
2019-05-19T12:27:09.831Z,3.70
2019-05-19T12:28:09.895Z,3.40
2019-05-19T12:29:09.957Z,3.70
2019-05-19T12:30:10.028Z,3.50
2019-05-19T12:31:10.083Z,3.50
2019-05-19T12:32:10.147Z,3.70
2019-05-19T12:33:10.222Z,3.20
2019-05-19T12:34:10.272Z,3.50
2019-05-19T12:35:10.338Z,3.20
2019-05-19T12:36:10.403Z,3.20
2019-05-19T12:37:10.461Z,3.20
2019-05-19T12:38:10.526Z,3.00
2019-05-19T12:39:10.590Z,3.30
2019-05-19T12:40:10.653Z,3.10
2019-05-19T12:41:10.716Z,3.40
2019-05-19T12:42:10.779Z,3.80
2019-05-19T12:43:10.843Z,3.10
2019-05-19T12:44:10.939Z,3.20
2019-05-19T12:45:10.969Z,3.60
2019-05-19T12:46:16.548Z,3.30
2019-05-19T12:47:11.097Z,3.20
2019-05-19T12:48:11.162Z,3.60
2019-05-19T12:49:11.224Z,3.30
2019-05-19T12:50:11.290Z,3.30
2019-05-19T12:51:11.354Z,3.40
2019-05-19T12:52:11.421Z,3.10
2019-05-19T12:53:11.483Z,3.20
2019-05-19T12:54:11.546Z,3.10
2019-05-19T12:55:11.622Z,3.30
2019-05-19T12:56:11.676Z,3.10
2019-05-19T12:57:11.742Z,2.80
2019-05-19T12:58:11.807Z,2.80
2019-05-19T12:59:11.873Z,2.90
2019-05-19T13:00:11.940Z,3.30
2019-05-19T13:01:12.001Z,3.00
2019-05-19T13:02:12.067Z,2.90
2019-05-19T13:03:12.134Z,2.80
2019-05-19T13:04:12.199Z,2.90
2019-05-19T13:05:12.264Z,2.70
2019-05-19T13:06:12.331Z,2.70
2019-05-19T13:07:12.396Z,2.80
2019-05-19T13:08:12.496Z,2.50
2019-05-19T13:09:12.529Z,2.40
2019-05-19T13:10:12.595Z,2.70
2019-05-19T13:11:12.664Z,2.60
2019-05-19T13:12:12.728Z,2.60
2019-05-19T13:13:12.821Z,2.50
2019-05-19T13:14:12.862Z,2.70
2019-05-19T13:15:15.574Z,2.50
2019-05-19T13:16:12.996Z,2.60
2019-05-19T13:17:13.063Z,2.10
2019-05-19T13:18:13.130Z,2.40
2019-05-19T13:19:13.199Z,2.50
2019-05-19T13:20:13.285Z,3.30